Terminal Aerodrome Forecast
Issued by NWS

Current Version | Previous Version | Text Only | Print | Product List | Glossary On
Versions: 1 2 3 4 5 6 7 8 9 10 11 12 13
000
FTUS46 KLOX 241732
TAFWJF
TAF
KWJF 241732Z 2418/2518 25016KT P6SM BKN120
     FM242100 23015G20KT P6SM BKN120
     FM250500 23008KT P6SM BKN120=

USA.gov is the U.S. government's official web portal to all federal, state and local government web resources and services.